DAL1665 KDTW-KORD
Flight info
| Callsign | DAL1665 |
|---|---|
| Flight time | 0h 48m |
| Altitude | 28000 |
| Route | KDTW KAYLN3 SMUUV WYNDE2 KORD |
| Aircraft | B712/M-VGDW/C |
Departure
| Time | 2026-05-05 00:38 |
|---|---|
| Airport | Detroit Metropolitan Wayne County Airport (KDTW) |
Arrival
| Time | 2026-05-05 01:26 |
|---|---|
| Airport | Chicago O'Hare International Airport (KORD) |
| Time | Latitude | Longitude | Altitude | Speed | Heading |
|---|---|---|---|---|---|
| 2026-05-05 00:14 | 42.20273 | -83.36141 | 650 ft | 0 kts | 298° |
| 2026-05-05 00:16 | 42.20272 | -83.36137 | 650 ft | 2 kts | 298° |
| 2026-05-05 00:16 | 42.20265 | -83.36118 | 650 ft | 2 kts | 298° |
| 2026-05-05 00:16 | 42.20257 | -83.36100 | 650 ft | 2 kts | 298° |
| 2026-05-05 00:17 | 42.20255 | -83.36094 | 650 ft | 2 kts | 298° |
| 2026-05-05 00:17 | 42.20260 | -83.36108 | 650 ft | 0 kts | 298° |
| 2026-05-05 00:18 | 42.20261 | -83.36109 | 650 ft | 1 kts | 300° |
| 2026-05-05 00:18 | 42.20270 | -83.36115 | 654 ft | 3 kts | 347° |
| 2026-05-05 00:18 | 42.20278 | -83.36110 | 650 ft | 2 kts | 50° |
| 2026-05-05 00:18 | 42.20278 | -83.36093 | 650 ft | 3 kts | 109° |
| 2026-05-05 00:19 | 42.20274 | -83.36087 | 650 ft | 1 kts | 138° |
| 2026-05-05 00:19 | 42.20268 | -83.36087 | 653 ft | 1 kts | 182° |
| 2026-05-05 00:23 | 42.20225 | -83.36100 | 650 ft | 9 kts | 192° |
| 2026-05-05 00:23 | 42.20173 | -83.36074 | 651 ft | 9 kts | 116° |
| 2026-05-05 00:23 | 42.20165 | -83.35995 | 650 ft | 12 kts | 94° |
| 2026-05-05 00:24 | 42.20165 | -83.35870 | 650 ft | 16 kts | 86° |
| 2026-05-05 00:24 | 42.20170 | -83.35727 | 650 ft | 19 kts | 89° |
| 2026-05-05 00:24 | 42.20174 | -83.35552 | 650 ft | 22 kts | 89° |
| 2026-05-05 00:24 | 42.20176 | -83.35438 | 650 ft | 24 kts | 89° |
| 2026-05-05 00:25 | 42.20179 | -83.35291 | 650 ft | 25 kts | 76° |
| 2026-05-05 00:25 | 42.20262 | -83.35123 | 651 ft | 27 kts | 34° |
| 2026-05-05 00:25 | 42.20407 | -83.35019 | 652 ft | 29 kts | 31° |
| 2026-05-05 00:25 | 42.20523 | -83.34837 | 652 ft | 30 kts | 45° |
| 2026-05-05 00:26 | 42.20682 | -83.34717 | 651 ft | 31 kts | 20° |
| 2026-05-05 00:26 | 42.20750 | -83.34688 | 650 ft | 0 kts | 12° |
| 2026-05-05 00:27 | 42.20754 | -83.34687 | 650 ft | 7 kts | 11° |
| 2026-05-05 00:27 | 42.20821 | -83.34683 | 650 ft | 13 kts | 0° |
| 2026-05-05 00:27 | 42.20904 | -83.34661 | 650 ft | 16 kts | 19° |
| 2026-05-05 00:27 | 42.20999 | -83.34600 | 650 ft | 19 kts | 36° |
| 2026-05-05 00:28 | 42.21046 | -83.34482 | 653 ft | 20 kts | 95° |
| 2026-05-05 00:28 | 42.21062 | -83.34337 | 651 ft | 22 kts | 49° |
| 2026-05-05 00:28 | 42.21160 | -83.34247 | 650 ft | 20 kts | 27° |
| 2026-05-05 00:28 | 42.21265 | -83.34180 | 650 ft | 18 kts | 26° |
| 2026-05-05 00:29 | 42.21362 | -83.34118 | 651 ft | 17 kts | 24° |
| 2026-05-05 00:29 | 42.21439 | -83.34062 | 650 ft | 16 kts | 31° |
| 2026-05-05 00:29 | 42.21525 | -83.33992 | 652 ft | 15 kts | 31° |
| 2026-05-05 00:29 | 42.21606 | -83.33925 | 649 ft | 16 kts | 30° |
| 2026-05-05 00:30 | 42.21710 | -83.33849 | 645 ft | 13 kts | 25° |
| 2026-05-05 00:30 | 42.21747 | -83.33827 | 644 ft | 11 kts | 22° |
| 2026-05-05 00:30 | 42.21814 | -83.33782 | 646 ft | 13 kts | 29° |
| 2026-05-05 00:30 | 42.21868 | -83.33738 | 648 ft | 0 kts | 32° |
| 2026-05-05 00:33 | 42.21876 | -83.33736 | 650 ft | 4 kts | 360° |
| 2026-05-05 00:33 | 42.21906 | -83.33750 | 649 ft | 6 kts | 337° |
| 2026-05-05 00:33 | 42.21936 | -83.33771 | 651 ft | 7 kts | 329° |
| 2026-05-05 00:34 | 42.21981 | -83.33807 | 650 ft | 9 kts | 329° |
| 2026-05-05 00:34 | 42.22044 | -83.33858 | 652 ft | 12 kts | 327° |
| 2026-05-05 00:34 | 42.22120 | -83.33917 | 650 ft | 15 kts | 340° |
| 2026-05-05 00:34 | 42.22217 | -83.33902 | 649 ft | 16 kts | 31° |
| 2026-05-05 00:35 | 42.22291 | -83.33840 | 652 ft | 18 kts | 31° |
| 2026-05-05 00:35 | 42.22372 | -83.33782 | 650 ft | 19 kts | 27° |
| 2026-05-05 00:35 | 42.22460 | -83.33725 | 650 ft | 21 kts | 26° |
| 2026-05-05 00:35 | 42.22558 | -83.33657 | 650 ft | 22 kts | 34° |
| 2026-05-05 00:36 | 42.22637 | -83.33585 | 649 ft | 0 kts | 30° |
| 2026-05-05 00:36 | 42.22681 | -83.33552 | 651 ft | 14 kts | 27° |
| 2026-05-05 00:36 | 42.22764 | -83.33519 | 648 ft | 15 kts | 343° |
| 2026-05-05 00:36 | 42.22787 | -83.33629 | 648 ft | 15 kts | 248° |
| 2026-05-05 00:37 | 42.22687 | -83.33732 | 648 ft | 41 kts | 211° |
| 2026-05-05 00:37 | 42.22558 | -83.33832 | 649 ft | 66 kts | 208° |
| 2026-05-05 00:37 | 42.22161 | -83.34120 | 649 ft | 111 kts | 208° |
| 2026-05-05 00:37 | 42.21506 | -83.34598 | 651 ft | 156 kts | 205° |
| 2026-05-05 00:38 | 42.20802 | -83.34983 | 894 ft | 162 kts | 201° |
| 2026-05-05 00:38 | 42.20175 | -83.35466 | 1437 ft | 153 kts | 218° |
| 2026-05-05 00:38 | 42.19577 | -83.36103 | 1739 ft | 164 kts | 221° |
| 2026-05-05 00:38 | 42.18937 | -83.36806 | 1992 ft | 176 kts | 221° |
| 2026-05-05 00:39 | 42.18349 | -83.37439 | 2349 ft | 184 kts | 221° |
| 2026-05-05 00:39 | 42.17744 | -83.38094 | 2808 ft | 188 kts | 222° |
| 2026-05-05 00:39 | 42.17102 | -83.38791 | 3377 ft | 187 kts | 223° |
| 2026-05-05 00:39 | 42.16528 | -83.39415 | 3879 ft | 188 kts | 223° |
| 2026-05-05 00:40 | 42.15986 | -83.40011 | 4324 ft | 190 kts | 224° |
| 2026-05-05 00:40 | 42.15268 | -83.40834 | 4799 ft | 198 kts | 226° |
| 2026-05-05 00:40 | 42.14864 | -83.41348 | 5020 ft | 202 kts | 229° |
| 2026-05-05 00:40 | 42.14190 | -83.42349 | 5423 ft | 212 kts | 234° |
| 2026-05-05 00:41 | 42.13888 | -83.42882 | 5600 ft | 218 kts | 237° |
| 2026-05-05 00:41 | 42.13492 | -83.43703 | 5753 ft | 230 kts | 242° |
| 2026-05-05 00:41 | 42.13117 | -83.44683 | 5961 ft | 242 kts | 247° |
| 2026-05-05 00:41 | 42.12672 | -83.46202 | 6301 ft | 257 kts | 252° |
| 2026-05-05 00:42 | 42.12291 | -83.47761 | 6718 ft | 269 kts | 252° |
| 2026-05-05 00:42 | 42.11764 | -83.49413 | 7243 ft | 281 kts | 242° |
| 2026-05-05 00:42 | 42.10888 | -83.51105 | 7919 ft | 293 kts | 232° |
| 2026-05-05 00:42 | 42.09519 | -83.52862 | 8708 ft | 310 kts | 223° |
| 2026-05-05 00:43 | 42.08620 | -83.53819 | 9016 ft | 324 kts | 221° |
| 2026-05-05 00:43 | 42.06958 | -83.55741 | 9230 ft | 356 kts | 231° |
| 2026-05-05 00:43 | 42.06014 | -83.57492 | 9385 ft | 372 kts | 242° |
| 2026-05-05 00:43 | 42.05421 | -83.59171 | 9517 ft | 375 kts | 253° |
| 2026-05-05 00:44 | 42.05259 | -83.59954 | 9630 ft | 371 kts | 260° |
| 2026-05-05 00:44 | 42.05177 | -83.62090 | 10164 ft | 356 kts | 275° |
| 2026-05-05 00:44 | 42.05859 | -83.64946 | 10957 ft | 339 kts | 298° |
| 2026-05-05 00:44 | 42.07305 | -83.67296 | 11640 ft | 343 kts | 313° |
| 2026-05-05 00:45 | 42.08608 | -83.68674 | 12034 ft | 348 kts | 320° |
| 2026-05-05 00:45 | 42.10573 | -83.70611 | 12612 ft | 346 kts | 315° |
| 2026-05-05 00:45 | 42.12324 | -83.72862 | 13225 ft | 342 kts | 306° |
| 2026-05-05 00:45 | 42.13238 | -83.74542 | 13625 ft | 342 kts | 297° |
| 2026-05-05 00:46 | 42.14530 | -83.78548 | 14481 ft | 346 kts | 290° |
| 2026-05-05 00:46 | 42.15621 | -83.81426 | 15145 ft | 357 kts | 297° |
| 2026-05-05 00:46 | 42.17038 | -83.84262 | 15945 ft | 372 kts | 303° |
| 2026-05-05 00:46 | 42.18730 | -83.86982 | 16877 ft | 385 kts | 308° |
| 2026-05-05 00:47 | 42.19963 | -83.88743 | 17609 ft | 390 kts | 309° |
| 2026-05-05 00:47 | 42.22261 | -83.92528 | 19006 ft | 394 kts | 302° |
| 2026-05-05 00:47 | 42.23304 | -83.94588 | 19756 ft | 394 kts | 298° |
| 2026-05-05 00:47 | 42.24654 | -83.97774 | 20944 ft | 392 kts | 293° |
| 2026-05-05 00:48 | 42.25979 | -84.01015 | 22148 ft | 393 kts | 298° |
| 2026-05-05 00:48 | 42.27470 | -84.04004 | 23333 ft | 390 kts | 302° |
| 2026-05-05 00:48 | 42.29126 | -84.06873 | 24418 ft | 384 kts | 304° |
| 2026-05-05 00:48 | 42.30835 | -84.09609 | 25491 ft | 379 kts | 306° |
| 2026-05-05 00:49 | 42.32585 | -84.12311 | 26353 ft | 380 kts | 306° |
| 2026-05-05 00:49 | 42.34333 | -84.15068 | 26494 ft | 396 kts | 305° |
| 2026-05-05 00:49 | 42.36120 | -84.18007 | 26605 ft | 409 kts | 305° |
| 2026-05-05 00:49 | 42.37894 | -84.21071 | 26790 ft | 419 kts | 302° |
| 2026-05-05 00:50 | 42.39607 | -84.24318 | 26997 ft | 429 kts | 301° |
| 2026-05-05 00:50 | 42.41335 | -84.27660 | 27208 ft | 439 kts | 301° |
| 2026-05-05 00:50 | 42.42892 | -84.31244 | 27293 ft | 445 kts | 288° |
| 2026-05-05 00:50 | 42.43501 | -84.35370 | 27287 ft | 454 kts | 273° |
| 2026-05-05 00:51 | 42.43725 | -84.39634 | 27196 ft | 453 kts | 272° |
| 2026-05-05 00:51 | 42.43939 | -84.43869 | 27133 ft | 451 kts | 272° |
| 2026-05-05 00:51 | 42.44149 | -84.48087 | 27189 ft | 446 kts | 272° |
| 2026-05-05 00:51 | 42.44310 | -84.51600 | 27324 ft | 440 kts | 272° |
| 2026-05-05 00:52 | 42.44507 | -84.55833 | 27468 ft | 434 kts | 272° |
| 2026-05-05 00:52 | 42.44699 | -84.59893 | 27582 ft | 428 kts | 272° |
| 2026-05-05 00:52 | 42.44895 | -84.63894 | 27665 ft | 423 kts | 273° |
| 2026-05-05 00:52 | 42.45091 | -84.67794 | 27668 ft | 421 kts | 273° |
| 2026-05-05 00:53 | 42.45292 | -84.71758 | 27560 ft | 421 kts | 273° |
| 2026-05-05 00:53 | 42.45497 | -84.75710 | 27457 ft | 420 kts | 273° |
| 2026-05-05 00:53 | 42.45699 | -84.79648 | 27373 ft | 418 kts | 272° |
| 2026-05-05 00:53 | 42.45804 | -84.83564 | 27302 ft | 413 kts | 270° |
| 2026-05-05 00:54 | 42.45775 | -84.87429 | 27219 ft | 407 kts | 267° |
| 2026-05-05 00:54 | 42.45601 | -84.91249 | 27116 ft | 408 kts | 265° |
| 2026-05-05 00:54 | 42.45401 | -84.95143 | 27257 ft | 418 kts | 267° |
| 2026-05-05 00:54 | 42.45330 | -84.99092 | 27486 ft | 427 kts | 269° |
| 2026-05-05 00:55 | 42.45403 | -85.03180 | 27696 ft | 436 kts | 271° |
| 2026-05-05 00:55 | 42.45559 | -85.07116 | 27776 ft | 447 kts | 272° |
| 2026-05-05 00:55 | 42.45743 | -85.11522 | 27536 ft | 454 kts | 272° |
| 2026-05-05 00:55 | 42.45922 | -85.15797 | 27271 ft | 454 kts | 272° |
| 2026-05-05 00:56 | 42.46103 | -85.20049 | 27019 ft | 453 kts | 272° |
| 2026-05-05 00:56 | 42.46282 | -85.24190 | 26786 ft | 452 kts | 272° |
| 2026-05-05 00:56 | 42.46470 | -85.28434 | 26556 ft | 451 kts | 272° |
| 2026-05-05 00:56 | 42.46660 | -85.32674 | 26336 ft | 450 kts | 272° |
| 2026-05-05 00:57 | 42.46854 | -85.36897 | 26124 ft | 449 kts | 272° |
| 2026-05-05 00:57 | 42.47048 | -85.41100 | 25923 ft | 447 kts | 272° |
| 2026-05-05 00:57 | 42.47245 | -85.45307 | 25726 ft | 446 kts | 272° |
| 2026-05-05 00:57 | 42.47388 | -85.49508 | 25485 ft | 453 kts | 270° |
| 2026-05-05 00:58 | 42.47475 | -85.53860 | 24927 ft | 463 kts | 271° |
| 2026-05-05 00:58 | 42.47562 | -85.58198 | 24417 ft | 464 kts | 271° |
| 2026-05-05 00:58 | 42.47651 | -85.62516 | 23934 ft | 466 kts | 271° |
| 2026-05-05 00:58 | 42.47745 | -85.66918 | 23471 ft | 464 kts | 271° |
| 2026-05-05 00:59 | 42.47840 | -85.71339 | 23005 ft | 464 kts | 271° |
| 2026-05-05 00:59 | 42.47934 | -85.75701 | 22502 ft | 462 kts | 271° |
| 2026-05-05 00:59 | 42.48028 | -85.80000 | 22023 ft | 459 kts | 271° |
| 2026-05-05 00:59 | 42.48123 | -85.84269 | 21563 ft | 456 kts | 271° |
| 2026-05-05 01:00 | 42.48223 | -85.88603 | 21107 ft | 453 kts | 271° |
| 2026-05-05 01:00 | 42.48171 | -85.92825 | 20657 ft | 445 kts | 265° |
| 2026-05-05 01:00 | 42.47789 | -85.96879 | 20206 ft | 433 kts | 259° |
| 2026-05-05 01:00 | 42.47228 | -86.00856 | 19667 ft | 424 kts | 261° |
| 2026-05-05 01:01 | 42.46891 | -86.04785 | 19123 ft | 417 kts | 266° |
| 2026-05-05 01:01 | 42.46871 | -86.08674 | 18569 ft | 410 kts | 270° |
| 2026-05-05 01:01 | 42.46906 | -86.12548 | 17984 ft | 418 kts | 269° |
| 2026-05-05 01:01 | 42.46926 | -86.16546 | 17369 ft | 431 kts | 269° |
| 2026-05-05 01:02 | 42.46938 | -86.20602 | 16800 ft | 442 kts | 269° |
| 2026-05-05 01:02 | 42.46948 | -86.24810 | 16275 ft | 449 kts | 269° |
| 2026-05-05 01:02 | 42.46958 | -86.29025 | 15789 ft | 445 kts | 270° |
| 2026-05-05 01:02 | 42.46968 | -86.33185 | 15294 ft | 439 kts | 270° |
| 2026-05-05 01:03 | 42.46976 | -86.37286 | 14804 ft | 433 kts | 270° |
| 2026-05-05 01:03 | 42.46941 | -86.41275 | 14791 ft | 410 kts | 268° |
| 2026-05-05 01:03 | 42.46813 | -86.45011 | 14941 ft | 386 kts | 267° |
| 2026-05-05 01:03 | 42.46704 | -86.48554 | 14942 ft | 366 kts | 268° |
| 2026-05-05 01:04 | 42.46648 | -86.51943 | 14597 ft | 356 kts | 268° |
| 2026-05-05 01:04 | 42.46246 | -86.58434 | 13884 ft | 338 kts | 261° |
| 2026-05-05 01:04 | 42.45863 | -86.61536 | 13448 ft | 332 kts | 262° |
| 2026-05-05 01:05 | 42.45473 | -86.64730 | 12992 ft | 355 kts | 262° |
| 2026-05-05 01:05 | 42.45073 | -86.68070 | 12577 ft | 355 kts | 262° |
| 2026-05-05 01:05 | 42.44685 | -86.71335 | 12155 ft | 354 kts | 262° |
| 2026-05-05 01:05 | 42.44337 | -86.74613 | 11774 ft | 357 kts | 263° |
| 2026-05-05 01:06 | 42.44012 | -86.77964 | 11445 ft | 357 kts | 263° |
| 2026-05-05 01:06 | 42.43691 | -86.81293 | 11140 ft | 357 kts | 263° |
| 2026-05-05 01:06 | 42.43369 | -86.84631 | 10833 ft | 357 kts | 263° |
| 2026-05-05 01:06 | 42.43050 | -86.87956 | 10549 ft | 356 kts | 263° |
| 2026-05-05 01:07 | 42.42735 | -86.91281 | 10274 ft | 356 kts | 263° |
| 2026-05-05 01:07 | 42.42423 | -86.94607 | 10013 ft | 355 kts | 263° |
| 2026-05-05 01:07 | 42.42112 | -86.97917 | 9743 ft | 354 kts | 263° |
| 2026-05-05 01:07 | 42.41809 | -87.01232 | 9501 ft | 352 kts | 266° |
| 2026-05-05 01:08 | 42.41752 | -87.04421 | 9899 ft | 330 kts | 271° |
| 2026-05-05 01:08 | 42.41844 | -87.07424 | 10258 ft | 316 kts | 273° |
| 2026-05-05 01:08 | 42.41840 | -87.10363 | 10427 ft | 309 kts | 267° |
| 2026-05-05 01:08 | 42.41583 | -87.13219 | 10527 ft | 302 kts | 260° |
| 2026-05-05 01:09 | 42.41146 | -87.16025 | 10418 ft | 310 kts | 259° |
| 2026-05-05 01:09 | 42.40704 | -87.18919 | 10248 ft | 317 kts | 260° |
| 2026-05-05 01:09 | 42.40270 | -87.21849 | 10097 ft | 318 kts | 260° |
| 2026-05-05 01:09 | 42.39845 | -87.24785 | 9956 ft | 316 kts | 260° |
| 2026-05-05 01:10 | 42.39426 | -87.27691 | 9808 ft | 314 kts | 260° |
| 2026-05-05 01:10 | 42.39012 | -87.30590 | 9658 ft | 313 kts | 261° |
| 2026-05-05 01:10 | 42.38603 | -87.33472 | 9500 ft | 312 kts | 261° |
| 2026-05-05 01:10 | 42.38195 | -87.36352 | 9337 ft | 311 kts | 261° |
| 2026-05-05 01:11 | 42.37779 | -87.39211 | 9163 ft | 308 kts | 258° |
| 2026-05-05 01:11 | 42.37181 | -87.41931 | 8968 ft | 296 kts | 251° |
| 2026-05-05 01:11 | 42.36430 | -87.44482 | 8665 ft | 287 kts | 250° |
| 2026-05-05 01:11 | 42.35726 | -87.46930 | 8318 ft | 280 kts | 253° |
| 2026-05-05 01:12 | 42.35128 | -87.49403 | 7953 ft | 274 kts | 251° |
| 2026-05-05 01:12 | 42.34239 | -87.51663 | 7561 ft | 272 kts | 238° |
| 2026-05-05 01:12 | 42.32951 | -87.53522 | 7159 ft | 272 kts | 224° |
| 2026-05-05 01:12 | 42.31529 | -87.55088 | 6690 ft | 272 kts | 224° |
| 2026-05-05 01:13 | 42.30046 | -87.56799 | 6212 ft | 271 kts | 225° |
| 2026-05-05 01:13 | 42.28622 | -87.58462 | 5752 ft | 270 kts | 224° |
| 2026-05-05 01:13 | 42.27118 | -87.60002 | 5277 ft | 271 kts | 219° |
| 2026-05-05 01:13 | 42.25544 | -87.61396 | 4807 ft | 271 kts | 216° |
| 2026-05-05 01:14 | 42.23963 | -87.62759 | 4361 ft | 265 kts | 220° |
| 2026-05-05 01:14 | 42.22579 | -87.64188 | 4242 ft | 236 kts | 223° |
| 2026-05-05 01:14 | 42.21397 | -87.65545 | 4091 ft | 215 kts | 225° |
| 2026-05-05 01:14 | 42.20267 | -87.66895 | 3936 ft | 225 kts | 225° |
| 2026-05-05 01:15 | 42.19054 | -87.68337 | 3825 ft | 232 kts | 225° |
| 2026-05-05 01:15 | 42.17825 | -87.69792 | 3747 ft | 236 kts | 224° |
| 2026-05-05 01:15 | 42.16599 | -87.71245 | 3698 ft | 240 kts | 224° |
| 2026-05-05 01:15 | 42.15333 | -87.72748 | 3683 ft | 245 kts | 224° |
| 2026-05-05 01:16 | 42.14041 | -87.74279 | 3681 ft | 248 kts | 224° |
| 2026-05-05 01:16 | 42.12744 | -87.75814 | 3700 ft | 247 kts | 224° |
| 2026-05-05 01:16 | 42.11472 | -87.77316 | 3708 ft | 238 kts | 224° |
| 2026-05-05 01:16 | 42.10551 | -87.78993 | 3940 ft | 215 kts | 255° |
| 2026-05-05 01:17 | 42.10481 | -87.80970 | 4321 ft | 207 kts | 270° |
| 2026-05-05 01:17 | 42.10548 | -87.82922 | 4683 ft | 211 kts | 270° |
| 2026-05-05 01:17 | 42.10591 | -87.84872 | 5087 ft | 205 kts | 269° |
| 2026-05-05 01:17 | 42.10612 | -87.86778 | 5458 ft | 205 kts | 269° |
| 2026-05-05 01:18 | 42.10636 | -87.88780 | 5671 ft | 223 kts | 270° |
| 2026-05-05 01:18 | 42.10625 | -87.90906 | 5833 ft | 228 kts | 266° |
| 2026-05-05 01:18 | 42.10394 | -87.93006 | 5971 ft | 220 kts | 257° |
| 2026-05-05 01:18 | 42.10009 | -87.95003 | 5884 ft | 224 kts | 258° |
| 2026-05-05 01:19 | 42.09832 | -87.97083 | 5662 ft | 230 kts | 264° |
| 2026-05-05 01:19 | 42.09535 | -87.99240 | 5365 ft | 240 kts | 261° |
| 2026-05-05 01:19 | 42.09312 | -88.01507 | 5054 ft | 246 kts | 263° |
| 2026-05-05 01:19 | 42.09211 | -88.03568 | 4939 ft | 225 kts | 268° |
| 2026-05-05 01:20 | 42.09252 | -88.05599 | 4778 ft | 208 kts | 271° |
| 2026-05-05 01:20 | 42.09252 | -88.07512 | 4584 ft | 205 kts | 265° |
| 2026-05-05 01:20 | 42.08782 | -88.09267 | 4522 ft | 206 kts | 229° |
| 2026-05-05 01:20 | 42.07456 | -88.10060 | 4621 ft | 225 kts | 187° |
| 2026-05-05 01:21 | 42.05991 | -88.09364 | 4515 ft | 226 kts | 144° |
| 2026-05-05 01:21 | 42.05242 | -88.07579 | 4174 ft | 224 kts | 98° |
| 2026-05-05 01:21 | 42.05498 | -88.05567 | 3826 ft | 232 kts | 70° |
| 2026-05-05 01:21 | 42.05935 | -88.03368 | 3501 ft | 237 kts | 80° |
| 2026-05-05 01:22 | 42.06145 | -88.01221 | 3226 ft | 227 kts | 87° |
| 2026-05-05 01:22 | 42.06208 | -87.99069 | 2964 ft | 232 kts | 93° |
| 2026-05-05 01:22 | 42.06223 | -87.96891 | 2521 ft | 232 kts | 93° |
| 2026-05-05 01:22 | 42.06249 | -87.94735 | 2083 ft | 229 kts | 93° |
| 2026-05-05 01:23 | 42.06291 | -87.92657 | 1838 ft | 218 kts | 93° |
| 2026-05-05 01:23 | 42.06347 | -87.90661 | 1672 ft | 213 kts | 92° |
| 2026-05-05 01:23 | 42.06117 | -87.88736 | 1661 ft | 212 kts | 126° |
| 2026-05-05 01:23 | 42.05167 | -87.87192 | 1822 ft | 211 kts | 139° |
| 2026-05-05 01:24 | 42.04228 | -87.85776 | 1821 ft | 195 kts | 139° |
| 2026-05-05 01:24 | 42.03358 | -87.84415 | 1767 ft | 189 kts | 139° |
| 2026-05-05 01:24 | 42.02407 | -87.83293 | 1606 ft | 173 kts | 168° |
| 2026-05-05 01:24 | 42.01341 | -87.83467 | 1426 ft | 156 kts | 219° |
| 2026-05-05 01:25 | 42.00537 | -87.84592 | 1345 ft | 177 kts | 236° |
| 2026-05-05 01:25 | 42.00279 | -87.86163 | 1257 ft | 172 kts | 268° |
| 2026-05-05 01:25 | 42.00330 | -87.87668 | 1029 ft | 153 kts | 264° |
| 2026-05-05 01:25 | 42.00294 | -87.89035 | 804 ft | 132 kts | 268° |
| 2026-05-05 01:26 | 42.00289 | -87.90263 | 690 ft | 132 kts | 269° |
| 2026-05-05 01:26 | 42.00283 | -87.91413 | 671 ft | 104 kts | 269° |
| 2026-05-05 01:26 | 42.00287 | -87.92225 | 681 ft | 73 kts | 269° |
| 2026-05-05 01:26 | 42.00259 | -87.92627 | 683 ft | 22 kts | 216° |
| 2026-05-05 01:27 | 42.00135 | -87.92592 | 678 ft | 20 kts | 99° |
| 2026-05-05 01:27 | 42.00160 | -87.92398 | 680 ft | 22 kts | 77° |
| 2026-05-05 01:27 | 42.00148 | -87.92200 | 678 ft | 23 kts | 91° |
| 2026-05-05 01:27 | 42.00150 | -87.91990 | 675 ft | 26 kts | 88° |
| 2026-05-05 01:28 | 42.00145 | -87.91735 | 673 ft | 27 kts | 93° |
| 2026-05-05 01:28 | 42.00036 | -87.91543 | 670 ft | 28 kts | 140° |
| 2026-05-05 01:28 | 41.99877 | -87.91369 | 662 ft | 31 kts | 142° |
| 2026-05-05 01:28 | 41.99704 | -87.91170 | 656 ft | 34 kts | 139° |
| 2026-05-05 01:29 | 41.99528 | -87.90965 | 657 ft | 33 kts | 141° |
| 2026-05-05 01:29 | 41.99337 | -87.91046 | 663 ft | 43 kts | 221° |
| 2026-05-05 01:29 | 41.99109 | -87.91277 | 663 ft | 39 kts | 194° |
| 2026-05-05 01:29 | 41.98995 | -87.91106 | 664 ft | 29 kts | 89° |
| 2026-05-05 01:30 | 41.98994 | -87.90843 | 670 ft | 28 kts | 90° |
| 2026-05-05 01:30 | 41.98993 | -87.90567 | 669 ft | 31 kts | 88° |
| 2026-05-05 01:30 | 41.99001 | -87.90272 | 667 ft | 33 kts | 91° |
| 2026-05-05 01:30 | 41.98937 | -87.90018 | 662 ft | 23 kts | 188° |
| 2026-05-05 01:31 | 41.98707 | -87.90042 | 664 ft | 41 kts | 181° |
| 2026-05-05 01:31 | 41.98434 | -87.90043 | 666 ft | 33 kts | 179° |
| 2026-05-05 01:31 | 41.98290 | -87.90088 | 663 ft | 17 kts | 258° |
| 2026-05-05 01:31 | 41.98294 | -87.90289 | 663 ft | 33 kts | 269° |
| 2026-05-05 01:32 | 41.98276 | -87.90549 | 659 ft | 22 kts | 239° |
| 2026-05-05 01:32 | 41.98207 | -87.90573 | 659 ft | 4 kts | 176° |
| 2026-05-05 01:32 | 41.98206 | -87.90573 | 659 ft | 0 kts | 177° |